createdAt,value
2023-06-26T00:04:57.526Z,70.82
2023-06-26T00:10:05.141Z,70.64
2023-06-26T00:15:13.383Z,71.34
2023-06-26T00:20:20.377Z,71.07
2023-06-26T00:25:27.581Z,71.58
2023-06-26T00:30:34.514Z,71.79
2023-06-26T00:35:41.400Z,71.68
2023-06-26T00:40:48.415Z,71.67
2023-06-26T00:45:55.418Z,72.22
2023-06-26T00:51:03.018Z,71.86
2023-06-26T00:56:10.839Z,72.32
2023-06-26T01:01:18.754Z,72.25
2023-06-26T01:06:28.482Z,72.52
2023-06-26T01:11:36.724Z,72.71
2023-06-26T01:16:48.686Z,74.02
2023-06-26T01:22:06.674Z,74.50
2023-06-26T01:27:16.330Z,74.51
2023-06-26T01:32:24.656Z,74.61
2023-06-26T01:37:34.257Z,75.01
2023-06-26T01:42:41.653Z,75.49
2023-06-26T01:47:54.653Z,76.11
2023-06-26T01:53:09.243Z,76.25
2023-06-26T01:58:18.260Z,76.20
2023-06-26T02:03:26.079Z,75.62
2023-06-26T02:08:33.082Z,75.60
2023-06-26T02:13:41.364Z,75.90
2023-06-26T02:18:48.469Z,75.92
2023-06-26T02:23:55.535Z,76.75
2023-06-26T02:29:02.594Z,77.03
2023-06-26T02:34:09.710Z,76.27
2023-06-26T02:39:16.746Z,76.19
2023-06-26T02:44:23.897Z,77.22
2023-06-26T02:49:30.822Z,76.97
2023-06-26T02:54:37.858Z,77.42
2023-06-26T02:59:45.703Z,77.37
2023-06-26T03:04:54.051Z,77.12
2023-06-26T03:10:01.742Z,77.03
2023-06-26T03:15:10.212Z,77.36
2023-06-26T03:20:17.745Z,77.67
2023-06-26T03:25:30.106Z,77.95
2023-06-26T03:30:47.799Z,77.52
2023-06-26T03:35:56.424Z,77.66
2023-06-26T03:41:03.712Z,77.73
2023-06-26T03:46:11.309Z,77.77
2023-06-26T03:51:18.577Z,78.02
2023-06-26T03:56:25.693Z,78.25
2023-06-26T04:01:32.768Z,78.51
2023-06-26T04:06:40.739Z,78.62
2023-06-26T04:11:47.667Z,79.27
2023-06-26T04:16:54.689Z,78.95
2023-06-26T04:22:02.071Z,78.78
2023-06-26T04:27:09.735Z,78.65
2023-06-26T04:32:16.609Z,78.46
2023-06-26T04:37:24.491Z,78.12
2023-06-26T04:42:31.782Z,77.87
2023-06-26T04:47:38.780Z,77.61
2023-06-26T04:52:45.850Z,77.76
2023-06-26T04:57:52.847Z,77.66
2023-06-26T05:03:02.145Z,77.47
2023-06-26T05:08:20.927Z,77.58
2023-06-26T05:13:28.080Z,77.31
2023-06-26T05:18:35.058Z,77.17
2023-06-26T05:23:45.499Z,76.66
2023-06-26T05:28:53.372Z,76.54
2023-06-26T05:34:03.077Z,76.01
2023-06-26T05:39:12.190Z,76.07
2023-06-26T05:44:19.470Z,75.56
2023-06-26T05:49:26.433Z,75.39
2023-06-26T05:54:34.302Z,74.93
2023-06-26T05:59:45.623Z,74.82
2023-06-26T06:04:52.875Z,74.74
2023-06-26T06:09:59.862Z,74.32
2023-06-26T06:15:07.131Z,73.86
2023-06-26T06:20:14.741Z,72.65
2023-06-26T06:25:21.817Z,72.03
2023-06-26T06:30:43.647Z,71.51
2023-06-26T06:35:52.407Z,71.29
2023-06-26T06:40:59.424Z,71.12
2023-06-26T06:46:06.390Z,70.23
2023-06-26T06:51:13.438Z,69.77
2023-06-26T06:56:20.376Z,69.53
2023-06-26T07:01:27.451Z,69.11
2023-06-26T07:06:34.461Z,68.80
2023-06-26T07:11:41.501Z,68.49
2023-06-26T07:16:48.486Z,68.06
2023-06-26T07:21:55.495Z,67.01
2023-06-26T07:27:03.275Z,66.15
2023-06-26T07:32:13.069Z,66.06
2023-06-26T07:37:21.794Z,65.34
2023-06-26T07:42:28.716Z,64.72
2023-06-26T07:47:35.651Z,63.94
2023-06-26T07:52:42.556Z,62.55
2023-06-26T07:57:51.506Z,63.27
2023-06-26T08:02:58.785Z,62.48
2023-06-26T08:08:06.241Z,61.99
2023-06-26T08:13:13.153Z,61.72
2023-06-26T08:18:20.228Z,61.61
2023-06-26T08:23:27.290Z,58.67
2023-06-26T08:28:34.812Z,59.77
2023-06-26T08:33:41.855Z,58.80
2023-06-26T08:38:48.802Z,57.85
2023-06-26T08:43:55.848Z,57.47
2023-06-26T08:49:09.711Z,57.73
2023-06-26T08:54:19.595Z,56.91
2023-06-26T08:59:26.985Z,55.63
2023-06-26T09:04:34.123Z,55.52
2023-06-26T09:09:41.155Z,53.29
2023-06-26T09:14:48.502Z,53.26
2023-06-26T09:19:57.270Z,52.09
2023-06-26T09:25:04.911Z,51.91
2023-06-26T09:30:13.450Z,51.34
2023-06-26T09:35:20.640Z,51.31
2023-06-26T09:40:27.559Z,50.84
2023-06-26T09:45:37.594Z,50.27
2023-06-26T09:51:00.866Z,48.16
2023-06-26T09:56:19.377Z,48.59
2023-06-26T10:01:27.453Z,48.34
2023-06-26T10:06:38.162Z,46.86
2023-06-26T10:11:53.826Z,44.52
2023-06-26T10:17:03.740Z,45.90
2023-06-26T10:22:11.698Z,45.01
2023-06-26T10:27:21.071Z,46.14
2023-06-26T10:32:31.077Z,46.02
2023-06-26T10:37:48.976Z,46.22
2023-06-26T10:43:09.728Z,46.02
2023-06-26T10:48:18.188Z,45.43
2023-06-26T10:53:34.923Z,45.82
2023-06-26T10:58:48.012Z,45.17
2023-06-26T11:04:08.323Z,45.49
2023-06-26T11:09:19.964Z,44.15
2023-06-26T11:14:30.359Z,44.33
2023-06-26T11:19:38.119Z,43.42
2023-06-26T11:24:45.905Z,42.46
2023-06-26T11:29:52.925Z,42.07
2023-06-26T11:35:01.254Z,42.07
2023-06-26T11:40:22.585Z,42.17
2023-06-26T11:45:30.376Z,41.10
2023-06-26T11:50:41.223Z,40.15
2023-06-26T11:55:48.596Z,40.23
2023-06-26T12:00:55.774Z,39.55
2023-06-26T12:06:07.203Z,39.58
2023-06-26T12:11:15.241Z,38.95
2023-06-26T12:16:22.549Z,38.07
2023-06-26T12:21:53.833Z,37.13
2023-06-26T12:27:00.858Z,35.76
2023-06-26T12:32:12.593Z,35.02
2023-06-26T12:37:20.334Z,34.55
2023-06-26T12:42:29.101Z,33.65
2023-06-26T12:47:39.536Z,32.46
2023-06-26T12:52:46.571Z,31.37
2023-06-26T12:57:53.635Z,29.78
2023-06-26T13:03:01.130Z,30.13
2023-06-26T13:08:09.667Z,29.02
2023-06-26T13:13:16.751Z,27.87
2023-06-26T13:18:24.092Z,27.93
2023-06-26T13:23:31.101Z,27.07
2023-06-26T13:28:38.066Z,27.73
2023-06-26T13:33:45.782Z,27.09
2023-06-26T13:38:56.939Z,26.71
2023-06-26T13:44:17.966Z,27.18
2023-06-26T13:49:31.459Z,25.85
2023-06-26T13:54:41.254Z,25.58
2023-06-26T13:59:48.869Z,24.75
2023-06-26T14:04:55.986Z,24.38
2023-06-26T14:10:03.016Z,24.30
2023-06-26T14:15:11.511Z,24.16
2023-06-26T14:20:18.838Z,23.52
2023-06-26T14:25:25.730Z,22.46
2023-06-26T14:30:32.873Z,22.65
2023-06-26T14:35:40.029Z,23.12
2023-06-26T14:40:47.405Z,22.61
2023-06-26T14:45:55.446Z,22.39
2023-06-26T14:51:05.114Z,21.23
2023-06-26T14:56:12.393Z,21.44
2023-06-26T15:01:20.857Z,22.40
2023-06-26T15:06:28.063Z,21.93
2023-06-26T15:11:35.739Z,21.77
2023-06-26T15:16:42.819Z,22.15
2023-06-26T15:21:49.747Z,22.38
2023-06-26T15:26:56.589Z,23.05
2023-06-26T15:32:03.529Z,23.58
2023-06-26T15:37:10.591Z,24.50
2023-06-26T15:42:17.614Z,25.50
2023-06-26T15:47:24.674Z,26.21
2023-06-26T15:52:31.612Z,25.83
2023-06-26T15:57:39.353Z,25.81
2023-06-26T16:02:46.665Z,25.95
2023-06-26T16:07:57.721Z,25.70
2023-06-26T16:13:05.225Z,25.19
2023-06-26T16:18:12.224Z,25.40
2023-06-26T16:23:21.041Z,25.41
2023-06-26T16:28:30.026Z,25.31
2023-06-26T16:33:37.518Z,25.59
2023-06-26T16:38:44.434Z,25.35
2023-06-26T16:43:51.418Z,25.71
2023-06-26T16:48:58.396Z,26.10
2023-06-26T16:54:05.545Z,26.01
2023-06-26T16:59:12.482Z,25.97
2023-06-26T17:04:19.374Z,26.66
2023-06-26T17:09:28.588Z,27.20
2023-06-26T17:14:35.673Z,28.01
2023-06-26T17:19:42.618Z,28.57
2023-06-26T17:24:49.817Z,29.04
2023-06-26T17:29:56.690Z,30.30
2023-06-26T17:35:08.567Z,31.37
2023-06-26T17:40:15.835Z,32.18
2023-06-26T17:45:23.096Z,33.02
2023-06-26T17:50:31.247Z,34.15
2023-06-26T17:55:38.510Z,34.91
2023-06-26T18:00:45.539Z,35.78
2023-06-26T18:05:52.554Z,36.36
2023-06-26T18:10:59.531Z,37.02
2023-06-26T18:16:09.907Z,37.89
2023-06-26T18:21:16.976Z,38.20
2023-06-26T18:26:25.010Z,38.91
2023-06-26T18:31:32.035Z,39.47
2023-06-26T18:36:39.184Z,39.97
2023-06-26T18:41:46.382Z,40.59
2023-06-26T18:46:53.442Z,41.34
2023-06-26T18:52:00.414Z,41.83
2023-06-26T18:57:08.125Z,42.17
2023-06-26T19:02:15.253Z,42.78
2023-06-26T19:07:22.338Z,43.25
2023-06-26T19:12:30.223Z,43.91
2023-06-26T19:17:37.109Z,44.38
2023-06-26T19:22:44.257Z,44.91
2023-06-26T19:27:51.549Z,45.40
2023-06-26T19:32:58.511Z,45.56
2023-06-26T19:38:07.592Z,45.65
2023-06-26T19:43:14.556Z,45.75
2023-06-26T19:48:21.442Z,45.96
2023-06-26T19:53:29.956Z,46.39
2023-06-26T19:58:37.124Z,46.81
2023-06-26T20:03:44.587Z,50.04
2023-06-26T20:08:51.573Z,52.56
2023-06-26T20:13:58.844Z,53.90
2023-06-26T20:19:07.503Z,59.86
2023-06-26T20:24:14.766Z,71.32
2023-06-26T20:29:23.390Z,79.04
2023-06-26T20:34:30.478Z,35.44
2023-06-26T20:39:38.990Z,-1.00
2023-06-26T20:44:48.085Z,-1.00
2023-06-26T20:49:55.889Z,-1.00
2023-06-26T20:55:04.389Z,-1.00
2023-06-26T21:00:13.386Z,-1.00
2023-06-26T21:05:20.842Z,-1.00
2023-06-26T21:10:28.044Z,-1.00
2023-06-26T21:15:34.993Z,-1.00
2023-06-26T21:20:42.610Z,-1.00
2023-06-26T21:25:49.693Z,-1.00
2023-06-26T21:30:56.840Z,-1.00
2023-06-26T21:36:03.956Z,-1.00
2023-06-26T21:41:11.086Z,-1.00
2023-06-26T21:46:18.134Z,-1.00
2023-06-26T21:51:25.029Z,-1.00
2023-06-26T21:56:34.036Z,-1.00
2023-06-26T22:01:41.047Z,-1.00
2023-06-26T22:06:48.140Z,-1.00
2023-06-26T22:11:56.146Z,-1.00
2023-06-26T22:17:03.255Z,-1.00
2023-06-26T22:22:10.421Z,-1.00
2023-06-26T22:27:17.506Z,-1.00
2023-06-26T22:32:24.696Z,-1.00
2023-06-26T22:37:33.799Z,-1.00
2023-06-26T22:42:41.821Z,-1.00
2023-06-26T22:47:48.930Z,-1.00
2023-06-26T22:52:56.239Z,-1.00
2023-06-26T22:58:03.314Z,-1.00
2023-06-26T23:03:11.245Z,-1.00
2023-06-26T23:08:18.533Z,-1.00
2023-06-26T23:13:25.509Z,-1.00
2023-06-26T23:18:32.580Z,-1.00
2023-06-26T23:23:39.446Z,-1.00
2023-06-26T23:28:46.373Z,-1.00
2023-06-26T23:33:53.308Z,-1.00
2023-06-26T23:39:01.950Z,-1.00
2023-06-26T23:44:09.027Z,-1.00
2023-06-26T23:49:16.256Z,-1.00
2023-06-26T23:54:23.211Z,-1.00
2023-06-26T23:59:30.201Z,-1.00
